createdAt,value
2023-12-08T00:00:42.072Z,95.68
2023-12-08T00:01:42.015Z,95.79
2023-12-08T00:02:42.055Z,95.89
2023-12-08T00:03:41.968Z,96.00
2023-12-08T00:04:41.968Z,96.00
2023-12-08T00:05:42.018Z,95.68
2023-12-08T00:06:42.016Z,95.68
2023-12-08T00:07:41.894Z,95.68
2023-12-08T00:08:41.897Z,95.68
2023-12-08T00:09:41.889Z,95.48
2023-12-08T00:10:41.852Z,95.48
2023-12-08T00:11:41.940Z,95.68
2023-12-08T00:12:41.840Z,95.79
2023-12-08T00:13:41.819Z,96.00
2023-12-08T00:14:41.837Z,96.00
2023-12-08T00:15:41.831Z,95.79
2023-12-08T00:16:41.805Z,95.79
2023-12-08T00:17:41.845Z,95.89
2023-12-08T00:18:41.896Z,96.00
2023-12-08T00:19:42.045Z,96.00
2023-12-08T00:20:41.760Z,96.00
2023-12-08T00:21:41.762Z,95.89
2023-12-08T00:22:41.776Z,95.68
2023-12-08T00:23:41.737Z,95.68
2023-12-08T00:24:41.715Z,95.68
2023-12-08T00:25:41.701Z,95.27
2023-12-08T00:26:41.712Z,95.37
2023-12-08T00:27:41.732Z,95.68
2023-12-08T00:28:41.715Z,95.89
2023-12-08T00:29:41.674Z,95.89
2023-12-08T00:30:41.623Z,96.00
2023-12-08T00:31:41.706Z,96.11
2023-12-08T00:32:41.764Z,96.11
2023-12-08T00:33:41.694Z,96.00
2023-12-08T00:34:41.617Z,96.00
2023-12-08T00:35:41.599Z,96.21
2023-12-08T00:36:41.559Z,96.11
2023-12-08T00:37:41.543Z,95.89
2023-12-08T00:38:41.560Z,95.79
2023-12-08T00:39:41.569Z,95.89
2023-12-08T00:40:41.518Z,95.68
2023-12-08T00:41:41.543Z,95.68
2023-12-08T00:42:41.523Z,95.68
2023-12-08T00:43:41.508Z,95.89
2023-12-08T00:44:41.548Z,95.79
2023-12-08T00:45:41.494Z,95.89
2023-12-08T00:46:41.480Z,95.79
2023-12-08T00:47:41.524Z,95.89
2023-12-08T00:48:41.562Z,96.00
2023-12-08T00:49:41.451Z,95.89
2023-12-08T00:50:41.470Z,95.79
2023-12-08T00:51:41.428Z,95.79
2023-12-08T00:52:41.431Z,95.89
2023-12-08T00:53:41.429Z,95.89
2023-12-08T00:54:41.355Z,95.89
2023-12-08T00:55:41.373Z,95.68
2023-12-08T00:56:41.389Z,95.68
2023-12-08T00:57:41.321Z,95.89
2023-12-08T00:58:41.320Z,95.89
2023-12-08T00:59:41.321Z,96.00
2023-12-08T01:00:41.403Z,96.11
2023-12-08T01:01:41.277Z,96.21
2023-12-08T01:02:41.377Z,96.00
2023-12-08T01:03:41.381Z,95.79
2023-12-08T01:04:41.274Z,95.79
2023-12-08T01:05:41.283Z,95.79
2023-12-08T01:06:41.240Z,95.89
2023-12-08T01:07:41.214Z,96.00
2023-12-08T01:08:41.209Z,95.89
2023-12-08T01:09:41.196Z,96.00
2023-12-08T01:10:41.186Z,96.00
2023-12-08T01:11:41.180Z,95.89
2023-12-08T01:12:41.183Z,95.68
2023-12-08T01:13:41.154Z,95.79
2023-12-08T01:14:41.183Z,96.00
2023-12-08T01:15:41.126Z,96.11
2023-12-08T01:16:41.087Z,96.11
2023-12-08T01:17:41.207Z,96.00
2023-12-08T01:18:41.190Z,95.89
2023-12-08T01:19:41.155Z,95.89
2023-12-08T01:20:41.120Z,96.00
2023-12-08T01:21:41.043Z,96.00
2023-12-08T01:22:41.027Z,95.89
2023-12-08T01:23:41.056Z,96.00
2023-12-08T01:24:41.002Z,95.79
2023-12-08T01:25:41.015Z,95.79
2023-12-08T01:26:41.000Z,96.00
2023-12-08T01:27:40.999Z,96.00
2023-12-08T01:28:41.218Z,95.89
2023-12-08T01:29:41.398Z,96.11
2023-12-08T01:30:41.016Z,96.21
2023-12-08T01:31:40.968Z,96.21
2023-12-08T01:32:41.012Z,95.89
2023-12-08T01:33:41.240Z,95.89
2023-12-08T01:34:40.999Z,95.89
2023-12-08T01:35:40.982Z,95.79
2023-12-08T01:36:43.875Z,95.89
2023-12-08T01:37:40.885Z,95.89
2023-12-08T01:38:40.896Z,95.79
2023-12-08T01:39:40.890Z,95.58
2023-12-08T01:40:40.878Z,95.27
2023-12-08T01:41:40.994Z,95.48
2023-12-08T01:42:40.880Z,95.58
2023-12-08T01:43:40.849Z,95.48
2023-12-08T01:44:40.891Z,95.68
2023-12-08T01:45:40.795Z,95.89
2023-12-08T01:46:40.773Z,95.89
2023-12-08T01:47:40.916Z,96.00
2023-12-08T01:48:40.816Z,96.11
2023-12-08T01:49:40.776Z,96.11
2023-12-08T01:50:40.751Z,95.79
2023-12-08T01:51:40.734Z,95.89
2023-12-08T01:52:40.706Z,95.89
2023-12-08T01:53:40.728Z,96.00
2023-12-08T01:54:40.753Z,96.11
2023-12-08T01:55:40.676Z,96.11
2023-12-08T01:56:40.715Z,96.11
2023-12-08T01:57:40.649Z,96.21
2023-12-08T01:58:40.632Z,96.11
2023-12-08T01:59:40.692Z,96.11
2023-12-08T02:00:40.684Z,96.11
2023-12-08T02:01:40.639Z,96.00
2023-12-08T02:02:40.709Z,96.11
2023-12-08T02:03:40.750Z,96.11
2023-12-08T02:04:40.609Z,95.75
2023-12-08T02:05:40.715Z,95.75
2023-12-08T02:06:40.590Z,95.48
2023-12-08T02:07:40.570Z,95.68
2023-12-08T02:08:40.521Z,95.79
2023-12-08T02:09:40.611Z,95.89
2023-12-08T02:10:40.654Z,95.68
2023-12-08T02:11:40.537Z,95.68
2023-12-08T02:12:40.531Z,95.68
2023-12-08T02:13:40.507Z,95.79
2023-12-08T02:14:40.513Z,95.64
2023-12-08T02:15:40.430Z,95.79
2023-12-08T02:16:40.440Z,95.79
2023-12-08T02:17:40.628Z,95.95
2023-12-08T02:18:40.563Z,96.00
2023-12-08T02:19:40.441Z,96.00
2023-12-08T02:20:40.414Z,95.68
2023-12-08T02:21:40.398Z,95.79
2023-12-08T02:22:40.381Z,95.89
2023-12-08T02:23:40.424Z,95.79
2023-12-08T02:24:40.367Z,95.85
2023-12-08T02:25:40.358Z,95.79
2023-12-08T02:26:40.385Z,95.79
2023-12-08T02:27:40.319Z,95.79
2023-12-08T02:28:40.335Z,95.79
2023-12-08T02:29:40.277Z,95.79
2023-12-08T02:30:40.257Z,95.79
2023-12-08T02:31:40.278Z,95.79
2023-12-08T02:32:40.437Z,95.89
2023-12-08T02:33:40.386Z,95.89
2023-12-08T02:34:40.255Z,95.79
2023-12-08T02:35:40.271Z,96.00
2023-12-08T02:36:40.190Z,95.85
2023-12-08T02:37:40.209Z,95.95
2023-12-08T02:38:40.264Z,95.64
2023-12-08T02:39:40.176Z,95.75
2023-12-08T02:40:40.169Z,95.75
2023-12-08T02:41:40.194Z,95.64
2023-12-08T02:42:40.130Z,95.54
2023-12-08T02:43:40.143Z,95.43
2023-12-08T02:44:40.137Z,95.54
2023-12-08T02:45:40.128Z,95.43
2023-12-08T02:46:40.095Z,95.75
2023-12-08T02:47:40.111Z,95.75
2023-12-08T02:48:40.146Z,95.64
2023-12-08T02:49:40.087Z,95.75
2023-12-08T02:50:40.073Z,95.85
2023-12-08T02:51:40.041Z,95.95
2023-12-08T02:52:40.042Z,95.85
2023-12-08T02:53:40.072Z,95.64
2023-12-08T02:54:40.008Z,95.54
2023-12-08T02:55:40.007Z,95.58
2023-12-08T02:56:39.987Z,95.43
2023-12-08T02:57:40.016Z,95.64
2023-12-08T02:58:39.955Z,95.75
2023-12-08T02:59:39.961Z,95.75
2023-12-08T03:00:39.976Z,95.85
2023-12-08T03:01:39.938Z,95.85
2023-12-08T03:02:40.016Z,95.85
2023-12-08T03:03:40.070Z,95.75
2023-12-08T03:04:39.972Z,95.64
2023-12-08T03:05:39.941Z,95.85
2023-12-08T03:06:39.865Z,95.75
2023-12-08T03:07:39.869Z,95.85
2023-12-08T03:08:39.901Z,95.75
2023-12-08T03:09:39.836Z,95.75
2023-12-08T03:10:39.796Z,95.75
2023-12-08T03:11:39.849Z,95.85
2023-12-08T03:12:39.796Z,95.95
2023-12-08T03:13:39.782Z,95.85
2023-12-08T03:14:39.810Z,95.85
2023-12-08T03:15:39.766Z,95.54
2023-12-08T03:16:39.774Z,95.85
2023-12-08T03:17:39.923Z,95.75
2023-12-08T03:18:39.956Z,95.54
2023-12-08T03:19:39.757Z,95.43
2023-12-08T03:20:39.738Z,95.64
2023-12-08T03:21:39.732Z,95.85
2023-12-08T03:22:39.671Z,95.95
2023-12-08T03:23:39.743Z,95.95
2023-12-08T03:24:39.658Z,95.95
2023-12-08T03:25:39.672Z,95.95
2023-12-08T03:26:39.681Z,95.43
2023-12-08T03:27:39.655Z,95.33
2023-12-08T03:28:39.651Z,95.33
2023-12-08T03:29:39.638Z,95.43
2023-12-08T03:30:39.617Z,95.43
2023-12-08T03:31:39.594Z,95.54
2023-12-08T03:32:39.666Z,95.33
2023-12-08T03:33:39.653Z,95.43
2023-12-08T03:34:39.610Z,95.54
2023-12-08T03:35:39.619Z,95.64
2023-12-08T03:36:39.545Z,95.54
2023-12-08T03:37:39.548Z,95.75
2023-12-08T03:38:39.526Z,95.85
2023-12-08T03:39:39.535Z,95.75
2023-12-08T03:40:39.481Z,95.64
2023-12-08T03:41:39.541Z,95.54
2023-12-08T03:42:39.466Z,95.43
2023-12-08T03:43:39.455Z,95.75
2023-12-08T03:44:39.494Z,95.75
2023-12-08T03:45:39.441Z,95.75
2023-12-08T03:46:39.421Z,95.95
2023-12-08T03:47:39.639Z,95.64
2023-12-08T03:48:39.573Z,95.64
2023-12-08T03:49:39.632Z,95.85
2023-12-08T03:50:39.413Z,95.85
2023-12-08T03:51:39.384Z,95.75
2023-12-08T03:52:39.386Z,95.75
2023-12-08T03:53:39.420Z,95.75
2023-12-08T03:54:39.340Z,95.85
2023-12-08T03:55:39.328Z,95.85
2023-12-08T03:56:39.324Z,95.54
2023-12-08T03:57:39.320Z,95.64
2023-12-08T03:58:39.290Z,95.64
2023-12-08T03:59:39.331Z,95.33
2023-12-08T04:00:40.009Z,95.43
2023-12-08T04:01:39.260Z,95.43
2023-12-08T04:02:39.326Z,95.43
2023-12-08T04:03:39.309Z,95.54
2023-12-08T04:04:39.270Z,95.54
2023-12-08T04:05:39.298Z,95.64
2023-12-08T04:06:39.242Z,95.64
2023-12-08T04:07:39.203Z,95.54
2023-12-08T04:08:39.182Z,95.43
2023-12-08T04:09:39.178Z,95.54
2023-12-08T04:10:39.146Z,95.54
2023-12-08T04:11:39.172Z,95.54
2023-12-08T04:12:39.162Z,95.58
2023-12-08T04:13:39.140Z,95.75
2023-12-08T04:14:39.160Z,96.00
2023-12-08T04:15:39.090Z,95.95
2023-12-08T04:16:39.092Z,95.75
2023-12-08T04:17:39.172Z,95.85
2023-12-08T04:18:39.242Z,95.95
2023-12-08T04:19:39.165Z,95.75
2023-12-08T04:20:39.048Z,95.64
2023-12-08T04:21:39.041Z,95.75
2023-12-08T04:22:39.035Z,95.64
2023-12-08T04:23:39.067Z,95.64
2023-12-08T04:24:39.004Z,95.75
2023-12-08T04:25:38.988Z,95.54
2023-12-08T04:26:39.041Z,95.54
2023-12-08T04:27:38.987Z,95.54
2023-12-08T04:28:38.982Z,95.64
2023-12-08T04:29:38.990Z,95.75
2023-12-08T04:30:39.015Z,95.43
2023-12-08T04:31:38.922Z,95.54
2023-12-08T04:32:39.099Z,95.64
2023-12-08T04:33:39.030Z,95.54
2023-12-08T04:34:38.964Z,95.64
2023-12-08T04:35:38.896Z,95.43
2023-12-08T04:36:38.926Z,95.43
2023-12-08T04:37:38.845Z,95.43
2023-12-08T04:38:38.836Z,95.33
2023-12-08T04:39:38.842Z,95.33
2023-12-08T04:40:38.804Z,95.43
2023-12-08T04:41:38.882Z,95.33
2023-12-08T04:42:38.810Z,95.43
2023-12-08T04:43:38.822Z,95.64
2023-12-08T04:44:38.822Z,95.64
2023-12-08T04:45:38.774Z,95.43
2023-12-08T04:46:38.741Z,95.33
2023-12-08T04:47:38.989Z,95.54
2023-12-08T04:48:38.916Z,95.43
2023-12-08T04:49:41.629Z,95.54
2023-12-08T04:50:38.777Z,95.75
2023-12-08T04:51:38.695Z,95.54
2023-12-08T04:52:38.685Z,95.37
2023-12-08T04:53:38.704Z,95.68
2023-12-08T04:54:38.662Z,95.75
2023-12-08T04:55:38.669Z,95.85
2023-12-08T04:56:38.670Z,95.79
2023-12-08T04:57:38.667Z,95.85
2023-12-08T04:58:38.638Z,95.85
2023-12-08T04:59:38.706Z,95.75
2023-12-08T05:00:38.661Z,95.95
2023-12-08T05:01:38.619Z,95.85
2023-12-08T05:02:38.620Z,95.75
2023-12-08T05:03:38.646Z,95.85
2023-12-08T05:04:38.587Z,95.75
2023-12-08T05:05:38.765Z,95.54
2023-12-08T05:06:38.633Z,95.33
2023-12-08T05:07:38.519Z,95.43
2023-12-08T05:08:38.601Z,95.64
2023-12-08T05:09:38.506Z,95.54
2023-12-08T05:10:38.567Z,95.54
2023-12-08T05:11:38.491Z,95.54
2023-12-08T05:12:38.489Z,95.43
2023-12-08T05:13:38.485Z,95.12
2023-12-08T05:14:38.504Z,95.23
2023-12-08T05:15:38.461Z,95.02
2023-12-08T05:16:38.424Z,95.23
2023-12-08T05:17:38.524Z,95.43
2023-12-08T05:18:38.555Z,95.23
2023-12-08T05:19:38.447Z,95.23
2023-12-08T05:20:38.428Z,95.23
2023-12-08T05:21:38.370Z,95.43
2023-12-08T05:22:38.380Z,95.54
2023-12-08T05:23:38.364Z,95.43
2023-12-08T05:24:38.328Z,95.33
2023-12-08T05:25:38.334Z,95.23
2023-12-08T05:26:38.338Z,95.33
2023-12-08T05:27:38.302Z,95.12
2023-12-08T05:28:38.345Z,95.02
2023-12-08T05:29:38.341Z,95.12
2023-12-08T05:30:38.266Z,95.33
2023-12-08T05:31:38.297Z,95.33
2023-12-08T05:32:38.374Z,95.12
2023-12-08T05:33:38.436Z,95.02
2023-12-08T05:34:38.308Z,95.23
2023-12-08T05:35:38.246Z,95.33
2023-12-08T05:36:38.214Z,95.33
2023-12-08T05:37:38.224Z,95.23
2023-12-08T05:38:38.210Z,95.02
2023-12-08T05:39:38.186Z,95.23
2023-12-08T05:40:38.144Z,94.92
2023-12-08T05:41:38.174Z,95.12
2023-12-08T05:42:38.177Z,95.23
2023-12-08T05:43:38.138Z,95.12
2023-12-08T05:44:38.261Z,95.02
2023-12-08T05:45:38.105Z,95.02
2023-12-08T05:46:38.138Z,95.02
2023-12-08T05:47:38.142Z,95.12
2023-12-08T05:48:38.282Z,94.92
2023-12-08T05:49:38.210Z,94.92
2023-12-08T05:50:38.064Z,94.92
2023-12-08T05:51:38.103Z,94.92
2023-12-08T05:52:38.067Z,95.02
2023-12-08T05:53:40.403Z,95.12
2023-12-08T05:54:38.020Z,94.92
2023-12-08T05:55:37.983Z,95.02
2023-12-08T05:56:38.031Z,95.02
2023-12-08T05:57:38.196Z,95.02
2023-12-08T05:58:37.985Z,95.02
2023-12-08T05:59:37.987Z,95.12
2023-12-08T06:00:38.015Z,95.12
2023-12-08T06:01:37.945Z,95.12
2023-12-08T06:02:38.001Z,95.23
2023-12-08T06:03:37.900Z,95.12
2023-12-08T06:04:37.896Z,95.12
2023-12-08T06:05:37.972Z,95.23
2023-12-08T06:06:39.166Z,95.12
2023-12-08T06:07:38.020Z,95.02
2023-12-08T06:08:37.945Z,94.92
2023-12-08T06:09:37.844Z,94.81
2023-12-08T06:10:37.825Z,94.70
2023-12-08T06:11:37.856Z,94.49
2023-12-08T06:12:37.841Z,94.60
2023-12-08T06:13:37.802Z,94.70
2023-12-08T06:14:37.812Z,94.60
2023-12-08T06:15:37.764Z,94.81
2023-12-08T06:16:37.776Z,95.02
2023-12-08T06:17:37.926Z,95.02
2023-12-08T06:18:37.899Z,94.92
2023-12-08T06:19:37.864Z,94.75
2023-12-08T06:20:37.765Z,94.81
2023-12-08T06:21:37.746Z,94.81
2023-12-08T06:22:37.708Z,94.64
2023-12-08T06:23:37.751Z,94.49
2023-12-08T06:24:37.710Z,94.60
2023-12-08T06:25:37.663Z,94.49
2023-12-08T06:26:37.685Z,94.39
2023-12-08T06:27:37.640Z,94.49
2023-12-08T06:28:37.667Z,94.54
2023-12-08T06:29:37.673Z,94.54
2023-12-08T06:30:37.628Z,94.49
2023-12-08T06:31:37.631Z,94.54
2023-12-08T06:32:37.705Z,94.64
2023-12-08T06:33:37.775Z,94.96
2023-12-08T06:34:37.731Z,94.96
2023-12-08T06:35:37.759Z,94.96
2023-12-08T06:36:37.569Z,94.75
2023-12-08T06:37:37.564Z,94.64
2023-12-08T06:38:37.570Z,94.85
2023-12-08T06:39:37.634Z,94.96
2023-12-08T06:40:37.508Z,94.96
2023-12-08T06:41:37.516Z,94.85
2023-12-08T06:42:37.479Z,94.85
2023-12-08T06:43:37.489Z,94.79
2023-12-08T06:44:37.529Z,94.79
2023-12-08T06:45:37.506Z,94.90
2023-12-08T06:46:37.489Z,95.10
2023-12-08T06:47:37.607Z,95.10
2023-12-08T06:48:37.595Z,95.00
2023-12-08T06:49:37.615Z,95.10
2023-12-08T06:50:37.518Z,95.21
2023-12-08T06:51:37.430Z,95.42
2023-12-08T06:52:37.384Z,95.36
2023-12-08T06:53:37.452Z,95.52
2023-12-08T06:54:37.418Z,95.36
2023-12-08T06:55:37.361Z,95.52
2023-12-08T06:56:37.408Z,95.62
2023-12-08T06:57:37.448Z,95.52
2023-12-08T06:58:37.311Z,95.52
2023-12-08T06:59:37.396Z,95.25
2023-12-08T07:00:37.513Z,95.31
2023-12-08T07:01:37.334Z,95.42
2023-12-08T07:02:37.312Z,95.21
2023-12-08T07:03:37.330Z,95.21
2023-12-08T07:04:37.288Z,95.46
2023-12-08T07:05:37.248Z,95.42
2023-12-08T07:06:37.261Z,95.21
2023-12-08T07:07:37.276Z,94.69
2023-12-08T07:08:37.296Z,94.48
2023-12-08T07:09:37.208Z,94.63
2023-12-08T07:10:37.207Z,94.58
2023-12-08T07:11:37.213Z,94.73
2023-12-08T07:12:37.179Z,94.69
2023-12-08T07:13:37.141Z,94.63
2023-12-08T07:14:37.204Z,94.48
2023-12-08T07:15:37.181Z,94.69
2023-12-08T07:16:37.135Z,94.37
2023-12-08T07:17:37.285Z,94.48
2023-12-08T07:18:37.240Z,94.27
2023-12-08T07:19:37.215Z,95.00
2023-12-08T07:20:37.125Z,95.00
2023-12-08T07:21:37.112Z,94.58
2023-12-08T07:22:37.073Z,94.69
2023-12-08T07:23:37.132Z,94.69
2023-12-08T07:24:37.045Z,95.00
2023-12-08T07:25:37.017Z,95.00
2023-12-08T07:26:37.083Z,94.79
2023-12-08T07:27:37.027Z,94.48
2023-12-08T07:28:37.050Z,94.17
2023-12-08T07:29:36.990Z,93.85
2023-12-08T07:30:37.003Z,93.96
2023-12-08T07:31:36.945Z,94.17
2023-12-08T07:32:37.046Z,94.17
2023-12-08T07:33:37.062Z,93.75
2023-12-08T07:34:36.954Z,93.96
2023-12-08T07:35:36.962Z,93.85
2023-12-08T07:36:36.870Z,93.54
2023-12-08T07:37:36.893Z,93.33
2023-12-08T07:38:36.922Z,93.33
2023-12-08T07:39:36.905Z,93.44
2023-12-08T07:40:36.876Z,93.33
2023-12-08T07:41:36.854Z,93.65
2023-12-08T07:42:36.861Z,93.54
2023-12-08T07:43:36.795Z,93.65
2023-12-08T07:44:36.915Z,93.96
2023-12-08T07:45:36.846Z,93.85
2023-12-08T07:46:36.833Z,92.81
2023-12-08T07:47:37.046Z,92.91
2023-12-08T07:48:37.015Z,93.02
2023-12-08T07:49:36.889Z,93.12
2023-12-08T07:50:36.855Z,93.23
2023-12-08T07:51:36.740Z,93.12
2023-12-08T07:52:36.713Z,93.02
2023-12-08T07:53:36.802Z,93.44
2023-12-08T07:54:36.717Z,92.91
2023-12-08T07:55:36.695Z,92.91
2023-12-08T07:56:36.739Z,92.91
2023-12-08T07:57:36.637Z,93.12
2023-12-08T07:58:36.688Z,93.02
2023-12-08T07:59:36.725Z,93.02
2023-12-08T08:00:36.757Z,93.59
2023-12-08T08:01:36.648Z,94.06
2023-12-08T08:02:36.665Z,94.10
2023-12-08T08:03:36.638Z,93.96
2023-12-08T08:04:36.603Z,93.65
2023-12-08T08:05:36.663Z,93.54
2023-12-08T08:06:36.690Z,93.33
2023-12-08T08:07:36.593Z,92.81
2023-12-08T08:08:36.594Z,92.81
2023-12-08T08:09:36.518Z,92.71
2023-12-08T08:10:36.513Z,92.81
2023-12-08T08:11:36.569Z,92.91
2023-12-08T08:12:36.536Z,92.81
2023-12-08T08:13:36.484Z,92.40
2023-12-08T08:14:36.488Z,92.18
2023-12-08T08:15:36.494Z,91.87
2023-12-08T08:16:36.521Z,91.77
2023-12-08T08:17:36.619Z,92.08
2023-12-08T08:18:36.540Z,92.40
2023-12-08T08:19:36.435Z,91.60
2023-12-08T08:20:36.426Z,91.81
2023-12-08T08:21:36.458Z,91.97
2023-12-08T08:22:36.379Z,92.12
2023-12-08T08:23:36.453Z,92.02
2023-12-08T08:24:36.381Z,91.81
2023-12-08T08:25:36.396Z,91.77
2023-12-08T08:26:36.417Z,92.12
2023-12-08T08:27:36.348Z,91.91
2023-12-08T08:28:36.323Z,91.71
2023-12-08T08:29:36.376Z,91.81
2023-12-08T08:30:36.293Z,91.81
2023-12-08T08:31:36.314Z,91.71
2023-12-08T08:32:36.324Z,91.39
2023-12-08T08:33:36.518Z,91.71
2023-12-08T08:34:36.368Z,91.50
2023-12-08T08:35:36.255Z,91.60
2023-12-08T08:36:36.246Z,91.91
2023-12-08T08:37:36.217Z,91.91
2023-12-08T08:38:36.345Z,91.91
2023-12-08T08:39:36.229Z,92.22
2023-12-08T08:40:36.222Z,92.02
2023-12-08T08:41:36.226Z,91.60
2023-12-08T08:42:36.147Z,91.71
2023-12-08T08:43:36.199Z,91.91
2023-12-08T08:44:36.198Z,91.60
2023-12-08T08:45:36.198Z,91.39
2023-12-08T08:46:36.109Z,91.18
2023-12-08T08:47:36.173Z,90.87
2023-12-08T08:48:36.194Z,91.08
2023-12-08T08:49:36.177Z,91.81
2023-12-08T08:50:43.530Z,92.02
2023-12-08T08:51:36.076Z,91.39
2023-12-08T08:52:36.105Z,91.50
2023-12-08T08:53:36.083Z,91.08
2023-12-08T08:54:36.068Z,91.39
2023-12-08T08:55:36.527Z,91.50
2023-12-08T08:56:36.083Z,91.39
2023-12-08T08:57:36.029Z,91.71
2023-12-08T08:58:36.030Z,91.29
2023-12-08T08:59:36.089Z,91.39
2023-12-08T09:00:36.145Z,91.50
2023-12-08T09:01:35.954Z,91.39
2023-12-08T09:02:35.960Z,91.46
2023-12-08T09:03:35.996Z,90.93
2023-12-08T09:04:36.112Z,91.04
2023-12-08T09:05:36.052Z,90.83
2023-12-08T09:06:35.946Z,90.72
2023-12-08T09:07:37.335Z,90.72
2023-12-08T09:08:35.938Z,91.04
2023-12-08T09:09:35.858Z,91.04
2023-12-08T09:10:35.892Z,90.83
2023-12-08T09:11:35.892Z,91.14
2023-12-08T09:12:35.830Z,90.79
2023-12-08T09:13:35.872Z,90.06
2023-12-08T09:14:35.794Z,89.95
2023-12-08T09:15:35.797Z,90.16
2023-12-08T09:16:35.765Z,89.75
2023-12-08T09:17:35.795Z,90.06
2023-12-08T09:18:35.903Z,90.16
2023-12-08T09:19:35.789Z,89.75
2023-12-08T09:20:35.956Z,89.43
2023-12-08T09:21:42.657Z,89.43
2023-12-08T09:22:35.744Z,88.91
2023-12-08T09:23:35.820Z,89.01
2023-12-08T09:24:35.718Z,88.85
2023-12-08T09:25:35.708Z,89.43
2023-12-08T09:26:35.703Z,88.85
2023-12-08T09:27:35.663Z,89.06
2023-12-08T09:28:35.727Z,88.75
2023-12-08T09:29:35.714Z,89.26
2023-12-08T09:30:35.673Z,88.85
2023-12-08T09:31:35.590Z,88.64
2023-12-08T09:32:35.625Z,88.85
2023-12-08T09:33:35.776Z,88.85
2023-12-08T09:34:35.784Z,89.06
2023-12-08T09:35:35.666Z,89.26
2023-12-08T09:36:35.605Z,88.85
2023-12-08T09:37:37.015Z,89.26
2023-12-08T09:38:35.543Z,88.75
2023-12-08T09:39:35.513Z,89.01
2023-12-08T09:40:35.537Z,89.32
2023-12-08T09:41:35.547Z,88.81
2023-12-08T09:42:35.511Z,88.70
2023-12-08T09:43:35.501Z,88.70
2023-12-08T09:44:35.481Z,89.01
2023-12-08T09:45:35.483Z,88.60
2023-12-08T09:46:35.528Z,87.97
2023-12-08T09:47:35.497Z,88.29
2023-12-08T09:48:35.698Z,88.18
2023-12-08T09:49:35.527Z,87.97
2023-12-08T09:50:35.417Z,88.08
2023-12-08T09:51:35.423Z,88.60
2023-12-08T09:52:35.428Z,87.45
2023-12-08T09:53:35.396Z,87.35
2023-12-08T09:54:35.367Z,87.35
2023-12-08T09:55:35.356Z,86.83
2023-12-08T09:56:35.411Z,87.04
2023-12-08T09:57:35.349Z,87.14
2023-12-08T09:58:35.350Z,87.87
2023-12-08T09:59:35.330Z,88.18
2023-12-08T10:00:35.291Z,88.60
2023-12-08T10:01:35.338Z,87.97
2023-12-08T10:02:35.353Z,88.08
2023-12-08T10:03:35.345Z,87.35
2023-12-08T10:04:35.314Z,87.45
2023-12-08T10:05:35.269Z,87.66
2023-12-08T10:06:35.303Z,87.70
2023-12-08T10:07:35.249Z,87.91
2023-12-08T10:08:35.254Z,88.01
2023-12-08T10:09:35.224Z,87.66
2023-12-08T10:10:35.231Z,88.12
2023-12-08T10:11:35.186Z,88.08
2023-12-08T10:12:35.190Z,87.87
2023-12-08T10:13:35.213Z,87.76
2023-12-08T10:14:35.173Z,87.76
2023-12-08T10:15:35.168Z,88.18
2023-12-08T10:16:35.167Z,87.76
2023-12-08T10:17:35.126Z,87.45
2023-12-08T10:18:35.390Z,87.45
2023-12-08T10:19:35.195Z,87.87
2023-12-08T10:20:35.196Z,87.24
2023-12-08T10:21:35.085Z,86.72
2023-12-08T10:22:35.066Z,87.55
2023-12-08T10:23:35.111Z,87.76
2023-12-08T10:24:35.089Z,87.24
2023-12-08T10:25:35.144Z,87.35
2023-12-08T10:26:35.041Z,87.24
2023-12-08T10:27:35.022Z,87.55
2023-12-08T10:28:35.051Z,87.45
2023-12-08T10:29:35.067Z,87.35
2023-12-08T10:30:35.029Z,87.35
2023-12-08T10:31:35.000Z,87.76
2023-12-08T10:32:35.044Z,87.45
2023-12-08T10:33:35.236Z,87.76
2023-12-08T10:34:35.033Z,87.35
2023-12-08T10:35:34.960Z,86.93
2023-12-08T10:36:34.907Z,87.45
2023-12-08T10:37:34.953Z,87.66
2023-12-08T10:38:34.963Z,87.83
2023-12-08T10:39:34.911Z,87.30
2023-12-08T10:40:34.908Z,87.30
2023-12-08T10:41:34.920Z,86.99
2023-12-08T10:42:34.864Z,86.06
2023-12-08T10:43:34.896Z,86.47
2023-12-08T10:44:34.901Z,87.20
2023-12-08T10:45:34.870Z,87.20
2023-12-08T10:46:34.847Z,87.20
2023-12-08T10:47:34.882Z,86.72
2023-12-08T10:48:34.874Z,86.79
2023-12-08T10:49:34.870Z,86.99
2023-12-08T10:50:34.834Z,87.10
2023-12-08T10:51:34.807Z,87.35
2023-12-08T10:52:34.788Z,87.55
2023-12-08T10:53:34.792Z,87.76
2023-12-08T10:54:34.791Z,87.73
2023-12-08T10:55:34.740Z,88.24
2023-12-08T10:56:34.763Z,88.35
2023-12-08T10:57:34.731Z,87.30
2023-12-08T10:58:34.810Z,87.52
2023-12-08T10:59:34.704Z,87.83
2023-12-08T11:00:34.757Z,87.20
2023-12-08T11:01:34.716Z,87.20
2023-12-08T11:02:34.656Z,87.30
2023-12-08T11:03:34.815Z,87.62
2023-12-08T11:04:34.698Z,87.06
2023-12-08T11:05:34.725Z,86.65
2023-12-08T11:06:34.619Z,87.06
2023-12-08T11:07:34.605Z,86.65
2023-12-08T11:08:34.639Z,86.75
2023-12-08T11:09:34.620Z,86.65
2023-12-08T11:10:34.608Z,86.65
2023-12-08T11:11:34.621Z,86.33
2023-12-08T11:12:34.567Z,86.12
2023-12-08T11:13:34.638Z,86.54
2023-12-08T11:14:34.561Z,85.81
2023-12-08T11:15:34.589Z,85.71
2023-12-08T11:16:34.582Z,85.53
2023-12-08T11:17:34.574Z,85.74
2023-12-08T11:18:34.545Z,86.37
2023-12-08T11:19:34.580Z,86.58
2023-12-08T11:20:34.523Z,86.27
2023-12-08T11:21:34.499Z,86.27
2023-12-08T11:22:34.469Z,86.16
2023-12-08T11:23:34.462Z,86.06
2023-12-08T11:24:34.459Z,86.47
2023-12-08T11:25:34.445Z,86.06
2023-12-08T11:26:34.461Z,85.96
2023-12-08T11:27:34.414Z,85.85
2023-12-08T11:28:34.432Z,85.85
2023-12-08T11:29:34.401Z,86.06
2023-12-08T11:30:34.385Z,86.06
2023-12-08T11:31:34.392Z,85.85
2023-12-08T11:32:34.467Z,86.27
2023-12-08T11:33:34.441Z,86.16
2023-12-08T11:34:34.452Z,86.37
2023-12-08T11:35:34.351Z,86.27
2023-12-08T11:36:34.333Z,86.68
2023-12-08T11:37:34.335Z,86.58
2023-12-08T11:38:34.291Z,85.53
2023-12-08T11:39:34.294Z,85.64
2023-12-08T11:40:34.268Z,85.96
2023-12-08T11:41:34.888Z,86.27
2023-12-08T11:42:34.313Z,86.16
2023-12-08T11:43:34.269Z,86.37
2023-12-08T11:44:34.258Z,85.58
2023-12-08T11:45:34.240Z,86.41
2023-12-08T11:46:34.230Z,86.27
2023-12-08T11:47:34.915Z,85.99
2023-12-08T11:48:34.289Z,86.30
2023-12-08T11:49:34.293Z,86.51
2023-12-08T11:50:34.166Z,86.61
2023-12-08T11:51:34.200Z,86.83
2023-12-08T11:52:34.177Z,87.14
2023-12-08T11:53:34.179Z,86.83
2023-12-08T11:54:34.108Z,86.10
2023-12-08T11:55:36.298Z,85.68
2023-12-08T11:56:34.108Z,86.10
2023-12-08T11:57:34.475Z,86.41
2023-12-08T11:58:34.164Z,86.30
2023-12-08T11:59:34.052Z,86.51
2023-12-08T12:00:34.288Z,86.83
2023-12-08T12:01:34.127Z,86.37
2023-12-08T12:02:34.063Z,86.27
2023-12-08T12:03:34.125Z,86.41
2023-12-08T12:04:34.005Z,86.51
2023-12-08T12:05:34.083Z,85.99
2023-12-08T12:06:34.037Z,86.10
2023-12-08T12:07:34.016Z,86.79
2023-12-08T12:08:34.011Z,86.68
2023-12-08T12:09:34.027Z,86.68
2023-12-08T12:10:34.111Z,86.58
2023-12-08T12:11:36.669Z,86.37
2023-12-08T12:12:33.910Z,86.16
2023-12-08T12:13:34.020Z,86.47
2023-12-08T12:14:33.915Z,86.06
2023-12-08T12:15:33.891Z,85.64
2023-12-08T12:16:33.841Z,85.53
2023-12-08T12:17:33.925Z,85.85
2023-12-08T12:18:34.006Z,86.79
2023-12-08T12:19:33.980Z,87.20
2023-12-08T12:20:33.890Z,86.89
2023-12-08T12:21:33.809Z,87.41
2023-12-08T12:22:33.817Z,86.89
2023-12-08T12:23:33.831Z,86.47
2023-12-08T12:24:33.781Z,85.22
2023-12-08T12:25:33.808Z,84.70
2023-12-08T12:26:33.825Z,85.22
2023-12-08T12:27:33.752Z,85.74
2023-12-08T12:28:34.499Z,86.16
2023-12-08T12:29:33.702Z,86.37
2023-12-08T12:30:33.833Z,86.47
2023-12-08T12:31:33.745Z,85.96
2023-12-08T12:32:33.684Z,85.85
2023-12-08T12:33:34.005Z,85.85
2023-12-08T12:34:33.688Z,86.06
2023-12-08T12:35:33.668Z,85.85
2023-12-08T12:36:33.734Z,86.37
2023-12-08T12:37:33.637Z,86.58
2023-12-08T12:38:33.621Z,86.37
2023-12-08T12:39:33.625Z,85.74
2023-12-08T12:40:33.628Z,86.06
2023-12-08T12:41:33.606Z,85.74
2023-12-08T12:42:33.577Z,86.06
2023-12-08T12:43:33.559Z,85.96
2023-12-08T12:44:33.565Z,86.06
2023-12-08T12:45:33.926Z,86.47
2023-12-08T12:46:33.568Z,85.96
2023-12-08T12:47:33.707Z,85.22
2023-12-08T12:48:33.688Z,85.33
2023-12-08T12:49:33.627Z,85.53
2023-12-08T12:50:33.486Z,86.12
2023-12-08T12:51:33.532Z,85.85
2023-12-08T12:52:33.442Z,86.06